createdAt,value
2023-01-22T00:02:06.008Z,3.15
2023-01-22T00:04:32.880Z,2.80
2023-01-22T00:06:59.591Z,2.85
2023-01-22T00:09:26.296Z,2.55
2023-01-22T00:11:52.847Z,2.85
2023-01-22T00:14:19.538Z,2.75
2023-01-22T00:16:46.359Z,2.92
2023-01-22T00:19:12.992Z,3.10
2023-01-22T00:21:39.599Z,3.08
2023-01-22T00:24:06.702Z,2.88
2023-01-22T00:26:33.340Z,2.75
2023-01-22T00:28:59.902Z,2.90
2023-01-22T00:31:26.591Z,2.83
2023-01-22T00:33:53.249Z,2.53
2023-01-22T00:36:21.540Z,3.00
2023-01-22T00:38:49.042Z,2.83
2023-01-22T00:41:16.587Z,3.00
2023-01-22T00:43:43.373Z,3.03
2023-01-22T00:46:12.599Z,2.97
2023-01-22T00:48:39.257Z,3.83
2023-01-22T00:51:08.782Z,3.05
2023-01-22T00:53:36.582Z,2.85
2023-01-22T00:56:03.269Z,2.80
2023-01-22T00:58:30.489Z,2.67
2023-01-22T01:00:57.113Z,3.45
2023-01-22T01:03:32.946Z,3.25
2023-01-22T01:06:10.963Z,3.13
2023-01-22T01:08:40.359Z,2.95
2023-01-22T01:11:09.840Z,3.05
2023-01-22T01:13:38.505Z,3.30
2023-01-22T01:16:07.781Z,3.05
2023-01-22T01:18:35.128Z,3.35
2023-01-22T01:21:01.773Z,2.88
2023-01-22T01:23:29.074Z,3.08
2023-01-22T01:25:56.043Z,3.28
2023-01-22T01:28:23.049Z,3.22
2023-01-22T01:30:49.621Z,3.28
2023-01-22T01:33:16.169Z,2.85
2023-01-22T01:35:42.743Z,2.80
2023-01-22T01:38:09.336Z,2.80
2023-01-22T01:40:35.892Z,3.17
2023-01-22T01:43:02.508Z,3.55
2023-01-22T01:45:33.480Z,2.95
2023-01-22T01:48:27.264Z,2.97
2023-01-22T01:51:15.196Z,2.92
2023-01-22T01:53:43.284Z,3.10
2023-01-22T01:56:13.562Z,3.00
2023-01-22T01:58:42.245Z,3.15
2023-01-22T02:01:12.548Z,3.13
2023-01-22T02:03:40.141Z,3.33
2023-01-22T02:06:10.742Z,2.75
2023-01-22T02:08:37.851Z,3.03
2023-01-22T02:11:04.672Z,2.83
2023-01-22T02:13:32.892Z,3.30
2023-01-22T02:15:59.502Z,3.38
2023-01-22T02:18:26.732Z,3.30
2023-01-22T02:20:58.573Z,3.58
2023-01-22T02:23:25.451Z,3.30
2023-01-22T02:25:52.497Z,2.83
2023-01-22T02:28:19.191Z,3.00
2023-01-22T02:30:47.027Z,3.00
2023-01-22T02:33:16.046Z,3.83
2023-01-22T02:35:44.259Z,3.40
2023-01-22T02:38:11.519Z,3.22
2023-01-22T02:40:49.227Z,3.35
2023-01-22T02:43:19.116Z,3.50
2023-01-22T02:45:45.835Z,2.80
2023-01-22T02:48:12.975Z,2.95
2023-01-22T02:50:39.671Z,3.15
2023-01-22T02:53:06.721Z,2.72
2023-01-22T02:55:34.002Z,2.85
2023-01-22T02:58:00.580Z,2.72
2023-01-22T03:00:27.191Z,2.85
2023-01-22T03:02:55.245Z,2.90
2023-01-22T03:05:22.027Z,3.60
2023-01-22T03:07:48.644Z,3.15
2023-01-22T03:10:17.824Z,2.90
2023-01-22T03:13:05.102Z,2.90
2023-01-22T03:15:51.033Z,3.05
2023-01-22T03:18:37.110Z,2.47
2023-01-22T03:21:16.656Z,3.00
2023-01-22T03:23:45.282Z,3.17
2023-01-22T03:26:11.988Z,3.42
2023-01-22T03:28:38.585Z,3.10
2023-01-22T03:31:06.045Z,3.25
2023-01-22T03:33:33.144Z,2.65
2023-01-22T03:36:04.347Z,2.90
2023-01-22T03:38:31.333Z,2.55
2023-01-22T03:41:10.684Z,2.92
2023-01-22T03:43:39.734Z,3.05
2023-01-22T03:46:19.812Z,2.80
2023-01-22T03:48:51.459Z,3.38
2023-01-22T03:51:18.620Z,3.10
2023-01-22T03:53:45.707Z,3.03
2023-01-22T03:56:20.227Z,3.00
2023-01-22T03:58:48.388Z,2.72
2023-01-22T04:01:18.073Z,2.53
2023-01-22T04:03:45.039Z,3.03
2023-01-22T04:06:12.638Z,2.83
2023-01-22T04:08:41.239Z,3.15
2023-01-22T04:11:09.624Z,2.78
2023-01-22T04:13:38.639Z,2.92
2023-01-22T04:16:06.358Z,3.28
2023-01-22T04:18:51.721Z,2.90
2023-01-22T04:21:25.527Z,2.92
2023-01-22T04:23:54.501Z,3.08
2023-01-22T04:26:21.081Z,3.30
2023-01-22T04:28:47.956Z,3.10
2023-01-22T04:31:15.149Z,3.13
2023-01-22T04:33:44.944Z,3.30
2023-01-22T04:36:18.162Z,3.38
2023-01-22T04:38:45.211Z,3.20
2023-01-22T04:41:11.816Z,2.90
2023-01-22T04:43:38.401Z,3.05
2023-01-22T04:46:05.094Z,3.33
2023-01-22T04:48:33.270Z,3.72
2023-01-22T04:51:00.013Z,3.38
2023-01-22T04:53:28.935Z,3.25
2023-01-22T04:55:55.505Z,3.50
2023-01-22T04:58:22.277Z,4.05
2023-01-22T05:00:50.334Z,3.45
2023-01-22T05:03:17.437Z,3.97
2023-01-22T05:05:44.065Z,3.88
2023-01-22T05:08:11.367Z,3.65
2023-01-22T05:10:38.251Z,4.00
2023-01-22T05:13:07.347Z,3.60
2023-01-22T05:15:34.853Z,3.75
2023-01-22T05:18:07.109Z,3.70
2023-01-22T05:20:35.963Z,4.07
2023-01-22T05:23:02.529Z,3.80
2023-01-22T05:25:30.846Z,3.50
2023-01-22T05:27:59.145Z,3.72
2023-01-22T05:30:35.665Z,3.63
2023-01-22T05:33:30.545Z,4.32
2023-01-22T05:35:58.359Z,3.70
2023-01-22T05:38:25.734Z,3.70
2023-01-22T05:40:52.883Z,4.13
2023-01-22T05:43:21.070Z,4.30
2023-01-22T05:45:53.378Z,3.95
2023-01-22T05:48:43.091Z,4.13
2023-01-22T05:51:12.721Z,4.05
2023-01-22T05:53:39.653Z,4.10
2023-01-22T05:56:06.532Z,4.47
2023-01-22T05:58:37.127Z,4.05
2023-01-22T06:01:04.498Z,3.75
2023-01-22T06:03:38.281Z,4.40
2023-01-22T06:06:08.731Z,3.97
2023-01-22T06:08:35.453Z,4.63
2023-01-22T06:11:13.228Z,4.85
2023-01-22T06:13:44.166Z,4.72
2023-01-22T06:16:18.829Z,4.28
2023-01-22T06:19:00.221Z,5.53
2023-01-22T06:21:33.783Z,4.53
2023-01-22T06:24:00.485Z,4.50
2023-01-22T06:26:27.981Z,4.80
2023-01-22T06:28:55.418Z,4.70
2023-01-22T06:31:22.663Z,4.43
2023-01-22T06:33:49.387Z,5.40
2023-01-22T06:36:16.037Z,5.03
2023-01-22T06:38:43.189Z,4.60
2023-01-22T06:41:14.363Z,4.72
2023-01-22T06:43:43.067Z,4.90
2023-01-22T06:46:09.779Z,4.63
2023-01-22T06:48:50.370Z,4.55
2023-01-22T06:51:17.195Z,4.88
2023-01-22T06:53:44.009Z,4.60
2023-01-22T06:56:11.429Z,4.45
2023-01-22T06:58:39.537Z,4.45
2023-01-22T07:01:06.497Z,5.32
2023-01-22T07:03:33.268Z,5.45
2023-01-22T07:06:01.977Z,5.10
2023-01-22T07:08:29.733Z,4.68
2023-01-22T07:10:56.343Z,4.93
2023-01-22T07:13:23.090Z,4.80
2023-01-22T07:15:49.976Z,4.75
2023-01-22T07:18:19.805Z,5.05
2023-01-22T07:20:47.448Z,5.10
2023-01-22T07:23:14.209Z,5.30
2023-01-22T07:25:40.809Z,5.28
2023-01-22T07:28:07.695Z,5.43
2023-01-22T07:30:34.579Z,5.50
2023-01-22T07:33:02.204Z,5.20
2023-01-22T07:35:29.214Z,5.85
2023-01-22T07:37:57.418Z,5.63
2023-01-22T07:40:24.481Z,5.47
2023-01-22T07:42:51.715Z,5.75
2023-01-22T07:45:21.160Z,5.63
2023-01-22T07:47:59.022Z,6.25
2023-01-22T07:50:31.276Z,6.10
2023-01-22T07:52:57.902Z,6.03
2023-01-22T07:55:24.471Z,6.38
2023-01-22T07:58:01.982Z,5.93
2023-01-22T08:00:28.796Z,6.07
2023-01-22T08:02:55.561Z,6.60
2023-01-22T08:05:22.654Z,6.75
2023-01-22T08:07:49.257Z,6.32
2023-01-22T08:10:17.221Z,6.75
2023-01-22T08:12:46.131Z,6.90
2023-01-22T08:15:13.905Z,6.47
2023-01-22T08:17:40.825Z,5.90
2023-01-22T08:20:08.070Z,5.47
2023-01-22T08:22:34.676Z,5.80
2023-01-22T08:25:01.247Z,6.28
2023-01-22T08:27:27.840Z,7.15
2023-01-22T08:29:55.469Z,13.82
2023-01-22T08:32:22.147Z,8.05
2023-01-22T08:34:48.841Z,6.75
2023-01-22T08:37:15.433Z,6.70
2023-01-22T08:39:41.968Z,8.98
2023-01-22T08:42:08.572Z,7.03
2023-01-22T08:44:35.145Z,6.10
2023-01-22T08:47:01.769Z,6.10
2023-01-22T08:49:30.590Z,5.57
2023-01-22T08:51:57.584Z,5.85
2023-01-22T08:54:24.190Z,5.55
2023-01-22T08:56:50.922Z,5.40
2023-01-22T08:59:17.487Z,5.28
2023-01-22T09:01:44.058Z,5.13
2023-01-22T09:04:11.069Z,6.07
2023-01-22T09:06:38.797Z,5.68
2023-01-22T09:09:06.259Z,5.25
2023-01-22T09:11:33.301Z,5.45
2023-01-22T09:14:00.014Z,6.13
2023-01-22T09:16:27.727Z,5.32
2023-01-22T09:18:54.374Z,7.72
2023-01-22T09:21:21.057Z,5.88
2023-01-22T09:23:47.679Z,5.95
2023-01-22T09:26:14.265Z,5.57
2023-01-22T09:28:40.900Z,5.72
2023-01-22T09:31:07.524Z,5.75
2023-01-22T09:33:34.140Z,5.97
2023-01-22T09:36:13.252Z,6.53
2023-01-22T09:38:40.443Z,5.63
2023-01-22T09:41:22.324Z,6.50
2023-01-22T09:43:58.485Z,5.97
2023-01-22T09:46:30.048Z,6.47
2023-01-22T09:49:00.084Z,6.00
2023-01-22T09:51:26.763Z,6.38
2023-01-22T09:53:56.824Z,6.75
2023-01-22T09:56:31.218Z,6.90
2023-01-22T09:58:59.106Z,7.10
2023-01-22T10:01:26.762Z,7.05
2023-01-22T10:04:00.421Z,7.20
2023-01-22T10:06:30.001Z,7.05
2023-01-22T10:09:16.213Z,7.03
2023-01-22T10:11:46.190Z,7.28
2023-01-22T10:14:16.446Z,6.78
2023-01-22T10:16:43.219Z,7.22
2023-01-22T10:19:22.489Z,7.50
2023-01-22T10:21:52.454Z,6.82
2023-01-22T10:24:19.129Z,22.58
2023-01-22T10:26:54.611Z,26.55
2023-01-22T10:29:24.985Z,49.72
2023-01-22T10:31:56.860Z,42.53
2023-01-22T10:34:32.897Z,18.33
2023-01-22T10:37:04.520Z,18.20
2023-01-22T10:39:42.290Z,11.43
2023-01-22T10:42:36.225Z,9.65
2023-01-22T10:45:15.898Z,8.05
2023-01-22T10:47:42.623Z,9.32
2023-01-22T10:50:16.601Z,9.20
2023-01-22T10:52:54.944Z,9.30
2023-01-22T10:55:34.793Z,8.48
2023-01-22T10:58:03.936Z,9.70
2023-01-22T11:00:51.489Z,8.55
2023-01-22T11:03:45.369Z,8.02
2023-01-22T11:06:42.664Z,8.77
2023-01-22T11:09:23.034Z,8.05
2023-01-22T11:11:57.296Z,7.60
2023-01-22T11:14:32.275Z,7.82
2023-01-22T11:17:03.811Z,7.35
2023-01-22T11:19:37.717Z,7.80
2023-01-22T11:22:11.919Z,12.90
2023-01-22T11:24:42.887Z,14.60
2023-01-22T11:27:35.717Z,10.77
2023-01-22T11:30:39.433Z,10.27
2023-01-22T11:33:31.780Z,9.48
2023-01-22T11:36:09.569Z,10.93
2023-01-22T11:38:47.291Z,9.20
2023-01-22T11:41:20.582Z,8.10
2023-01-22T11:43:58.570Z,7.97
2023-01-22T11:46:35.734Z,8.00
2023-01-22T11:49:08.399Z,8.93
2023-01-22T11:51:44.938Z,8.57
2023-01-22T11:54:24.604Z,8.43
2023-01-22T11:57:18.132Z,7.82
2023-01-22T12:00:25.161Z,7.75
2023-01-22T12:03:19.036Z,10.45
2023-01-22T12:06:02.058Z,8.52
2023-01-22T12:08:47.000Z,7.70
2023-01-22T12:11:38.350Z,8.45
2023-01-22T12:14:10.730Z,10.25
2023-01-22T12:16:54.692Z,8.95
2023-01-22T12:19:33.793Z,8.63
2023-01-22T12:22:25.279Z,7.80
2023-01-22T12:25:11.593Z,7.70
2023-01-22T12:27:47.475Z,7.00
2023-01-22T12:30:38.837Z,7.22
2023-01-22T12:33:05.869Z,7.43
2023-01-22T12:35:32.933Z,7.20
2023-01-22T12:38:22.245Z,7.13
2023-01-22T12:40:59.466Z,7.68
2023-01-22T12:43:52.009Z,7.35
2023-01-22T12:46:42.791Z,7.28
2023-01-22T12:49:11.423Z,7.55
2023-01-22T12:51:43.466Z,7.25
2023-01-22T12:54:32.769Z,6.80
2023-01-22T12:57:14.634Z,7.55
2023-01-22T12:59:47.863Z,7.28
2023-01-22T13:02:35.897Z,7.05
2023-01-22T13:05:14.107Z,7.80
2023-01-22T13:07:43.771Z,7.00
2023-01-22T13:10:19.824Z,8.00
2023-01-22T13:12:50.197Z,7.07
2023-01-22T13:15:34.305Z,13.13
2023-01-22T13:18:12.821Z,24.33
2023-01-22T13:21:09.410Z,13.90
2023-01-22T13:23:41.469Z,20.23
2023-01-22T13:26:08.046Z,25.13
2023-01-22T13:28:34.716Z,18.23
2023-01-22T13:31:04.113Z,12.43
2023-01-22T13:33:31.048Z,10.35
2023-01-22T13:35:58.116Z,9.07
2023-01-22T13:38:27.792Z,8.95
2023-01-22T13:40:59.468Z,8.43
2023-01-22T13:43:27.135Z,9.20
2023-01-22T13:45:56.345Z,8.75
2023-01-22T13:48:25.588Z,8.70
2023-01-22T13:51:04.911Z,8.80
2023-01-22T13:53:39.210Z,9.20
2023-01-22T13:56:06.481Z,9.88
2023-01-22T13:58:49.433Z,9.02
2023-01-22T14:01:34.262Z,8.98
2023-01-22T14:04:04.301Z,8.65
2023-01-22T14:06:31.291Z,8.50
2023-01-22T14:08:58.643Z,9.15
2023-01-22T14:11:25.260Z,8.90
2023-01-22T14:13:53.131Z,9.10
2023-01-22T14:16:19.933Z,9.25
2023-01-22T14:18:46.962Z,9.50
2023-01-22T14:21:13.992Z,9.90
2023-01-22T14:23:41.815Z,9.20
2023-01-22T14:26:09.121Z,9.43
2023-01-22T14:28:36.034Z,9.38
2023-01-22T14:31:02.735Z,9.45
2023-01-22T14:33:32.487Z,9.35
2023-01-22T14:35:59.184Z,9.50
2023-01-22T14:38:26.899Z,8.25
2023-01-22T14:40:53.876Z,10.90
2023-01-22T14:43:20.713Z,10.23
2023-01-22T14:45:47.496Z,10.02
2023-01-22T14:48:17.139Z,9.65
2023-01-22T14:50:48.718Z,9.95
2023-01-22T14:53:16.028Z,10.23
2023-01-22T14:55:42.859Z,10.35
2023-01-22T14:58:10.370Z,10.32
2023-01-22T15:00:37.598Z,10.27
2023-01-22T15:03:04.831Z,9.68
2023-01-22T15:05:33.300Z,10.27
2023-01-22T15:08:01.611Z,9.65
2023-01-22T15:10:28.395Z,10.65
2023-01-22T15:12:55.422Z,10.98
2023-01-22T15:15:26.314Z,10.00
2023-01-22T15:17:54.528Z,9.93
2023-01-22T15:20:21.865Z,9.77
2023-01-22T15:22:49.860Z,10.57
2023-01-22T15:25:17.311Z,10.13
2023-01-22T15:27:44.687Z,10.82
2023-01-22T15:30:12.650Z,19.77
2023-01-22T15:32:39.428Z,40.65
2023-01-22T15:35:06.322Z,29.08
2023-01-22T15:37:32.905Z,19.67
2023-01-22T15:39:59.547Z,20.05
2023-01-22T15:42:26.146Z,26.48
2023-01-22T15:44:52.765Z,15.40
2023-01-22T15:47:19.411Z,18.25
2023-01-22T15:49:46.033Z,14.95
2023-01-22T15:52:12.850Z,26.65
2023-01-22T15:54:39.429Z,21.63
2023-01-22T15:57:05.992Z,13.45
2023-01-22T15:59:33.280Z,10.82
2023-01-22T16:01:59.987Z,10.98
2023-01-22T16:04:26.572Z,13.95
2023-01-22T16:06:53.236Z,12.13
2023-01-22T16:09:19.805Z,11.45
2023-01-22T16:11:46.401Z,13.43
2023-01-22T16:14:12.979Z,11.07
2023-01-22T16:16:39.694Z,12.55
2023-01-22T16:19:07.986Z,10.60
2023-01-22T16:21:35.156Z,11.60
2023-01-22T16:24:02.554Z,10.57
2023-01-22T16:26:31.690Z,11.48
2023-01-22T16:28:59.802Z,11.65
2023-01-22T16:31:28.505Z,12.68
2023-01-22T16:33:57.316Z,11.98
2023-01-22T16:36:26.023Z,11.80
2023-01-22T16:38:52.952Z,11.35
2023-01-22T16:41:24.785Z,11.23
2023-01-22T16:43:55.093Z,11.40
2023-01-22T16:46:23.983Z,13.02
2023-01-22T16:49:15.791Z,12.52
2023-01-22T16:51:45.538Z,13.15
2023-01-22T16:54:17.780Z,12.98
2023-01-22T16:56:44.360Z,11.55
2023-01-22T16:59:11.427Z,12.68
2023-01-22T17:01:41.072Z,13.30
2023-01-22T17:04:07.984Z,13.60
2023-01-22T17:06:40.591Z,13.90
2023-01-22T17:09:08.682Z,11.95
2023-01-22T17:11:35.234Z,13.13
2023-01-22T17:14:01.999Z,13.57
2023-01-22T17:16:28.835Z,14.73
2023-01-22T17:18:55.815Z,13.77
2023-01-22T17:21:22.494Z,13.20
2023-01-22T17:23:49.157Z,13.25
2023-01-22T17:26:16.831Z,13.18
2023-01-22T17:28:44.151Z,13.10
2023-01-22T17:31:13.137Z,13.25
2023-01-22T17:33:39.928Z,14.00
2023-01-22T17:36:07.303Z,12.05
2023-01-22T17:38:37.590Z,13.60
2023-01-22T17:41:10.678Z,12.52
2023-01-22T17:43:38.712Z,17.48
2023-01-22T17:46:15.998Z,26.48
2023-01-22T17:48:43.159Z,30.30
2023-01-22T17:51:12.843Z,30.33
2023-01-22T17:53:41.776Z,24.73
2023-01-22T17:56:11.457Z,24.40
2023-01-22T17:58:41.399Z,22.65
2023-01-22T18:01:10.865Z,39.40
2023-01-22T18:03:37.647Z,34.22
2023-01-22T18:06:05.328Z,23.55
2023-01-22T18:08:33.011Z,18.67
2023-01-22T18:10:59.932Z,26.23
2023-01-22T18:13:26.551Z,25.13
2023-01-22T18:15:53.380Z,21.50
2023-01-22T18:18:20.036Z,20.63
2023-01-22T18:20:47.340Z,16.60
2023-01-22T18:23:15.303Z,14.05
2023-01-22T18:25:44.423Z,13.70
2023-01-22T18:28:11.236Z,12.63
2023-01-22T18:30:39.006Z,11.25
2023-01-22T18:33:05.685Z,11.88
2023-01-22T18:35:34.716Z,12.20
2023-01-22T18:38:01.715Z,11.77
2023-01-22T18:40:31.663Z,11.65
2023-01-22T18:42:58.391Z,11.73
2023-01-22T18:45:25.776Z,12.23
2023-01-22T18:47:55.540Z,11.65
2023-01-22T18:50:22.401Z,11.63
2023-01-22T18:52:49.408Z,10.90
2023-01-22T18:55:17.312Z,11.13
2023-01-22T18:57:46.427Z,11.25
2023-01-22T19:00:15.126Z,11.73
2023-01-22T19:02:41.740Z,10.73
2023-01-22T19:05:08.480Z,10.60
2023-01-22T19:07:38.211Z,10.57
2023-01-22T19:10:07.825Z,11.30
2023-01-22T19:12:34.487Z,11.35
2023-01-22T19:15:01.322Z,10.77
2023-01-22T19:17:28.037Z,11.10
2023-01-22T19:19:54.595Z,10.32
2023-01-22T19:22:23.526Z,11.43
2023-01-22T19:24:50.895Z,11.18
2023-01-22T19:27:17.733Z,10.52
2023-01-22T19:29:46.847Z,10.85
2023-01-22T19:32:16.528Z,11.00
2023-01-22T19:34:43.247Z,10.43
2023-01-22T19:37:09.877Z,10.60
2023-01-22T19:39:36.910Z,10.68
2023-01-22T19:42:05.237Z,10.50
2023-01-22T19:44:33.451Z,10.85
2023-01-22T19:47:00.429Z,11.25
2023-01-22T19:49:27.109Z,10.90
2023-01-22T19:51:53.668Z,11.07
2023-01-22T19:54:20.549Z,11.23
2023-01-22T19:56:47.191Z,10.93
2023-01-22T19:59:16.820Z,11.05
2023-01-22T20:01:45.729Z,9.88
2023-01-22T20:04:25.151Z,10.93
2023-01-22T20:07:02.027Z,10.02
2023-01-22T20:09:30.190Z,10.68
2023-01-22T20:11:58.138Z,10.52
2023-01-22T20:14:39.127Z,10.20
2023-01-22T20:17:06.116Z,10.20
2023-01-22T20:19:32.734Z,9.77
2023-01-22T20:22:02.777Z,10.30
2023-01-22T20:24:29.372Z,11.23
2023-01-22T20:26:57.006Z,11.23
2023-01-22T20:29:23.714Z,11.45
2023-01-22T20:31:54.349Z,11.20
2023-01-22T20:34:21.549Z,10.45
2023-01-22T20:36:48.428Z,10.10
2023-01-22T20:39:16.260Z,10.85
2023-01-22T20:41:43.572Z,10.57
2023-01-22T20:44:12.126Z,9.90
2023-01-22T20:46:41.394Z,9.88
2023-01-22T20:49:08.818Z,10.45
2023-01-22T20:51:35.821Z,10.40
2023-01-22T20:54:02.715Z,10.88
2023-01-22T20:56:32.731Z,10.02
2023-01-22T20:59:08.151Z,11.15
2023-01-22T21:01:35.286Z,10.77
2023-01-22T21:04:02.655Z,10.00
2023-01-22T21:06:31.474Z,10.05
2023-01-22T21:08:59.029Z,10.60
2023-01-22T21:11:28.362Z,10.32
2023-01-22T21:13:56.234Z,10.82
2023-01-22T21:16:31.673Z,10.82
2023-01-22T21:19:04.150Z,10.88
2023-01-22T21:21:32.055Z,10.93
2023-01-22T21:23:58.669Z,10.93
2023-01-22T21:26:27.844Z,10.43
2023-01-22T21:29:02.073Z,10.68
2023-01-22T21:31:29.172Z,11.52
2023-01-22T21:34:03.120Z,10.65
2023-01-22T21:36:42.454Z,11.55
2023-01-22T21:39:14.467Z,10.48
2023-01-22T21:41:42.422Z,11.50
2023-01-22T21:44:36.391Z,10.98
2023-01-22T21:47:03.939Z,11.93
2023-01-22T21:49:30.977Z,10.52
2023-01-22T21:51:59.506Z,11.95
2023-01-22T21:54:33.560Z,11.18
2023-01-22T21:57:00.249Z,11.85
2023-01-22T21:59:27.032Z,11.68
2023-01-22T22:01:54.756Z,11.80
2023-01-22T22:04:23.846Z,12.18
2023-01-22T22:06:50.835Z,11.60
2023-01-22T22:09:22.161Z,12.75
2023-01-22T22:11:48.774Z,11.82
2023-01-22T22:14:17.795Z,12.75
2023-01-22T22:16:44.805Z,12.65
2023-01-22T22:19:11.829Z,13.15
2023-01-22T22:21:38.713Z,12.70
2023-01-22T22:24:05.731Z,12.38
2023-01-22T22:26:32.586Z,12.82
2023-01-22T22:28:59.360Z,13.00
2023-01-22T22:31:26.323Z,13.45
2023-01-22T22:33:54.418Z,12.77
2023-01-22T22:36:29.056Z,12.88
2023-01-22T22:38:55.999Z,13.13
2023-01-22T22:41:28.006Z,12.70
2023-01-22T22:43:55.498Z,12.85
2023-01-22T22:46:24.989Z,12.52
2023-01-22T22:48:52.823Z,13.70
2023-01-22T22:51:25.162Z,12.68
2023-01-22T22:53:55.101Z,12.57
2023-01-22T22:56:22.241Z,12.20
2023-01-22T22:58:48.871Z,12.52
2023-01-22T23:01:17.581Z,12.15
2023-01-22T23:03:44.567Z,13.07
2023-01-22T23:06:16.856Z,12.65
2023-01-22T23:08:54.797Z,11.55
2023-01-22T23:11:23.601Z,12.10
2023-01-22T23:13:50.511Z,12.25
2023-01-22T23:16:19.055Z,11.90
2023-01-22T23:18:51.695Z,11.68
2023-01-22T23:21:21.756Z,11.90
2023-01-22T23:23:48.975Z,12.75
2023-01-22T23:26:18.151Z,12.43
2023-01-22T23:28:44.707Z,11.98
2023-01-22T23:31:14.166Z,11.73
2023-01-22T23:33:41.487Z,12.25
2023-01-22T23:36:11.668Z,11.82
2023-01-22T23:38:38.916Z,12.32
2023-01-22T23:41:07.919Z,11.93
2023-01-22T23:43:34.902Z,12.15
2023-01-22T23:46:01.821Z,12.60
2023-01-22T23:48:28.396Z,12.48
2023-01-22T23:50:55.025Z,12.65
2023-01-22T23:53:22.478Z,12.23
2023-01-22T23:55:49.179Z,11.75
2023-01-22T23:58:15.754Z,12.05
